sensor_id;sensor_type;location;lat;lon;timestamp;pressure;altitude;pressure_sealevel;temperature
81885;BMP280;71340;55.154;30.266;2023-08-12T00:01:49;99671.13;;;16.34
81885;BMP280;71340;55.154;30.266;2023-08-12T00:04:14;99661.28;;;16.27
81885;BMP280;71340;55.154;30.266;2023-08-12T00:06:42;99657.13;;;16.23
81885;BMP280;71340;55.154;30.266;2023-08-12T00:09:07;99669.19;;;16.24
81885;BMP280;71340;55.154;30.266;2023-08-12T00:11:35;99647.28;;;16.27
81885;BMP280;71340;55.154;30.266;2023-08-12T00:14:00;99663.16;;;16.30
81885;BMP280;71340;55.154;30.266;2023-08-12T00:16:25;99662.41;;;16.23
81885;BMP280;71340;55.154;30.266;2023-08-12T00:18:51;99660.84;;;16.15
81885;BMP280;71340;55.154;30.266;2023-08-12T00:21:16;99671.81;;;16.13
81885;BMP280;71340;55.154;30.266;2023-08-12T00:23:41;99665.78;;;16.13
81885;BMP280;71340;55.154;30.266;2023-08-12T00:26:08;99673.66;;;16.09
81885;BMP280;71340;55.154;30.266;2023-08-12T00:28:34;99675.19;;;16.14
81885;BMP280;71340;55.154;30.266;2023-08-12T00:30:59;99666.13;;;16.15
81885;BMP280;71340;55.154;30.266;2023-08-12T00:33:25;99676.75;;;16.18
81885;BMP280;71340;55.154;30.266;2023-08-12T00:35:50;99663.91;;;16.17
81885;BMP280;71340;55.154;30.266;2023-08-12T00:38:15;99670.34;;;16.23
81885;BMP280;71340;55.154;30.266;2023-08-12T00:40:41;99669.22;;;16.31
81885;BMP280;71340;55.154;30.266;2023-08-12T00:43:06;99669.94;;;16.21
81885;BMP280;71340;55.154;30.266;2023-08-12T00:45:33;99670.66;;;16.14
81885;BMP280;71340;55.154;30.266;2023-08-12T00:47:59;99676.75;;;16.18
81885;BMP280;71340;55.154;30.266;2023-08-12T00:50:25;99661.59;;;16.12
81885;BMP280;71340;55.154;30.266;2023-08-12T00:52:51;99650.25;;;16.15
81885;BMP280;71340;55.154;30.266;2023-08-12T00:55:17;99641.16;;;16.02
81885;BMP280;71340;55.154;30.266;2023-08-12T00:57:43;99633.59;;;15.97
81885;BMP280;71340;55.154;30.266;2023-08-12T01:00:09;99643.06;;;16.01
81885;BMP280;71340;55.154;30.266;2023-08-12T01:02:35;99658.16;;;16.04
81885;BMP280;71340;55.154;30.266;2023-08-12T01:05:00;99651.72;;;15.98
81885;BMP280;71340;55.154;30.266;2023-08-12T01:07:26;99640.81;;;16.10
81885;BMP280;71340;55.154;30.266;2023-08-12T01:09:52;99642.75;;;16.17
81885;BMP280;71340;55.154;30.266;2023-08-12T01:12:29;99646.81;;;16.04
81885;BMP280;71340;55.154;30.266;2023-08-12T01:15:11;99649.47;;;16.04
81885;BMP280;71340;55.154;30.266;2023-08-12T01:17:41;99646.88;;;16.11
81885;BMP280;71340;55.154;30.266;2023-08-12T01:20:08;99633.25;;;16.02
81885;BMP280;71340;55.154;30.266;2023-08-12T01:22:34;99624.16;;;16.03
81885;BMP280;71340;55.154;30.266;2023-08-12T01:25:05;99621.53;;;16.03
81885;BMP280;71340;55.154;30.266;2023-08-12T01:27:30;99621.50;;;15.99
81885;BMP280;71340;55.154;30.266;2023-08-12T01:29:55;99623.34;;;15.88
81885;BMP280;71340;55.154;30.266;2023-08-12T01:37:31;99616.91;;;15.86
81885;BMP280;71340;55.154;30.266;2023-08-12T01:40:00;99607.84;;;15.76
81885;BMP280;71340;55.154;30.266;2023-08-12T01:42:27;99623.00;;;15.93
81885;BMP280;71340;55.154;30.266;2023-08-12T01:44:54;99630.88;;;15.76
81885;BMP280;71340;55.154;30.266;2023-08-12T01:47:19;99631.22;;;15.74
81885;BMP280;71340;55.154;30.266;2023-08-12T01:49:44;99637.25;;;15.75
81885;BMP280;71340;55.154;30.266;2023-08-12T01:52:10;99623.66;;;15.73
81885;BMP280;71340;55.154;30.266;2023-08-12T01:54:35;99628.91;;;15.66
81885;BMP280;71340;55.154;30.266;2023-08-12T01:57:04;99628.53;;;15.64
81885;BMP280;71340;55.154;30.266;2023-08-12T01:59:36;99616.81;;;15.65
81885;BMP280;71340;55.154;30.266;2023-08-12T02:02:02;99616.09;;;15.64
81885;BMP280;71340;55.154;30.266;2023-08-12T02:04:27;99626.28;;;15.69
81885;BMP280;71340;55.154;30.266;2023-08-12T02:06:54;99621.34;;;15.68
81885;BMP280;71340;55.154;30.266;2023-08-12T02:09:19;99633.06;;;15.67
81885;BMP280;71340;55.154;30.266;2023-08-12T02:11:45;99628.94;;;15.73
81885;BMP280;71340;55.154;30.266;2023-08-12T02:14:10;99632.69;;;15.72
81885;BMP280;71340;55.154;30.266;2023-08-12T02:16:36;99623.28;;;15.71
81885;BMP280;71340;55.154;30.266;2023-08-12T02:19:01;99613.06;;;15.66
81885;BMP280;71340;55.154;30.266;2023-08-12T02:21:27;99617.97;;;15.64
81885;BMP280;71340;55.154;30.266;2023-08-12T02:23:52;99612.69;;;15.64
81885;BMP280;71340;55.154;30.266;2023-08-12T02:26:17;99613.75;;;15.55
81885;BMP280;71340;55.154;30.266;2023-08-12T02:28:43;99619.00;;;15.48
81885;BMP280;71340;55.154;30.266;2023-08-12T02:31:08;99623.13;;;15.42
81885;BMP280;71340;55.154;30.266;2023-08-12T02:33:33;99628.84;;;15.51
81885;BMP280;71340;55.154;30.266;2023-08-12T02:35:59;99634.88;;;15.52
81885;BMP280;71340;55.154;30.266;2023-08-12T02:38:24;99636.38;;;15.49
81885;BMP280;71340;55.154;30.266;2023-08-12T02:40:50;99637.88;;;15.50
81885;BMP280;71340;55.154;30.266;2023-08-12T02:43:16;99629.22;;;15.53
81885;BMP280;71340;55.154;30.266;2023-08-12T02:45:41;99630.81;;;15.65
81885;BMP280;71340;55.154;30.266;2023-08-12T02:48:09;99631.91;;;15.60
81885;BMP280;71340;55.154;30.266;2023-08-12T02:50:34;99623.50;;;15.44
81885;BMP280;71340;55.154;30.266;2023-08-12T02:53:00;99627.31;;;15.47
81885;BMP280;71340;55.154;30.266;2023-08-12T02:55:25;99625.06;;;15.56
81885;BMP280;71340;55.154;30.266;2023-08-12T02:57:50;99622.41;;;15.49
81885;BMP280;71340;55.154;30.266;2023-08-12T03:00:16;99616.38;;;15.48
81885;BMP280;71340;55.154;30.266;2023-08-12T03:02:42;99617.13;;;15.49
81885;BMP280;71340;55.154;30.266;2023-08-12T03:05:08;99606.16;;;15.50
81885;BMP280;71340;55.154;30.266;2023-08-12T03:07:33;99609.22;;;15.49
81885;BMP280;71340;55.154;30.266;2023-08-12T03:09:59;99609.56;;;15.51
81885;BMP280;71340;55.154;30.266;2023-08-12T03:12:24;99614.53;;;15.59
81885;BMP280;71340;55.154;30.266;2023-08-12T03:14:50;99614.97;;;15.69
81885;BMP280;71340;55.154;30.266;2023-08-12T03:17:15;99606.63;;;15.59
81885;BMP280;71340;55.154;30.266;2023-08-12T03:19:41;99602.06;;;15.60
81885;BMP280;71340;55.154;30.266;2023-08-12T03:22:06;99610.03;;;15.64
81885;BMP280;71340;55.154;30.266;2023-08-12T03:24:32;99609.25;;;15.59
81885;BMP280;71340;55.154;30.266;2023-08-12T03:26:57;99607.75;;;15.58
81885;BMP280;71340;55.154;30.266;2023-08-12T03:29:22;99599.50;;;15.78
81885;BMP280;71340;55.154;30.266;2023-08-12T03:31:48;99600.19;;;15.60
81885;BMP280;71340;55.154;30.266;2023-08-12T03:34:13;99605.50;;;15.68
81885;BMP280;71340;55.154;30.266;2023-08-12T03:36:38;99604.06;;;15.81
81885;BMP280;71340;55.154;30.266;2023-08-12T03:39:04;99593.88;;;15.76
81885;BMP280;71340;55.154;30.266;2023-08-12T03:41:29;99595.38;;;15.80
81885;BMP280;71340;55.154;30.266;2023-08-12T03:43:55;99597.22;;;15.73
81885;BMP280;71340;55.154;30.266;2023-08-12T03:46:21;99594.94;;;15.68
81885;BMP280;71340;55.154;30.266;2023-08-12T03:48:46;99586.69;;;15.80
81885;BMP280;71340;55.154;30.266;2023-08-12T03:51:12;99599.19;;;15.90
81885;BMP280;71340;55.154;30.266;2023-08-12T03:53:37;99603.28;;;15.77
81885;BMP280;71340;55.154;30.266;2023-08-12T03:56:02;99601.03;;;15.82
81885;BMP280;71340;55.154;30.266;2023-08-12T03:58:29;99594.69;;;15.94
81885;BMP280;71340;55.154;30.266;2023-08-12T04:00:54;99588.66;;;16.00
81885;BMP280;71340;55.154;30.266;2023-08-12T04:03:19;99586.75;;;15.94
81885;BMP280;71340;55.154;30.266;2023-08-12T04:05:49;99584.50;;;15.96
81885;BMP280;71340;55.154;30.266;2023-08-12T04:08:14;99569.34;;;15.93
81885;BMP280;71340;55.154;30.266;2023-08-12T04:10:40;99575.03;;;15.95
81885;BMP280;71340;55.154;30.266;2023-08-12T04:13:05;99574.66;;;15.93
81885;BMP280;71340;55.154;30.266;2023-08-12T04:15:31;99576.56;;;15.96
81885;BMP280;71340;55.154;30.266;2023-08-12T04:17:56;99578.44;;;15.92
81885;BMP280;71340;55.154;30.266;2023-08-12T04:20:22;99579.19;;;15.96
81885;BMP280;71340;55.154;30.266;2023-08-12T04:22:47;99564.50;;;16.02
81885;BMP280;71340;55.154;30.266;2023-08-12T04:25:14;99565.59;;;15.90
81885;BMP280;71340;55.154;30.266;2023-08-12T04:27:39;99555.03;;;16.01
81885;BMP280;71340;55.154;30.266;2023-08-12T04:30:05;99570.91;;;16.01
81885;BMP280;71340;55.154;30.266;2023-08-12T04:32:30;99561.09;;;16.05
81885;BMP280;71340;55.154;30.266;2023-08-12T04:34:56;99561.47;;;16.07
81885;BMP280;71340;55.154;30.266;2023-08-12T04:37:21;99552.06;;;16.13
81885;BMP280;71340;55.154;30.266;2023-08-12T04:39:48;99555.44;;;16.06
81885;BMP280;71340;55.154;30.266;2023-08-12T04:42:14;99549.78;;;16.29
81885;BMP280;71340;55.154;30.266;2023-08-12T04:44:39;99556.59;;;16.51
81885;BMP280;71340;55.154;30.266;2023-08-12T04:47:05;99539.97;;;16.47
81885;BMP280;71340;55.154;30.266;2023-08-12T04:49:30;99552.44;;;16.71
81885;BMP280;71340;55.154;30.266;2023-08-12T04:51:55;99549.06;;;16.64
81885;BMP280;71340;55.154;30.266;2023-08-12T04:54:21;99561.91;;;16.65
81885;BMP280;71340;55.154;30.266;2023-08-12T04:56:46;99557.38;;;16.80
81885;BMP280;71340;55.154;30.266;2023-08-12T04:59:11;99547.53;;;16.87
81885;BMP280;71340;55.154;30.266;2023-08-12T05:01:37;99551.31;;;16.79
81885;BMP280;71340;55.154;30.266;2023-08-12T05:04:02;99549.38;;;16.97
81885;BMP280;71340;55.154;30.266;2023-08-12T05:06:27;99545.22;;;16.96
81885;BMP280;71340;55.154;30.266;2023-08-12T05:08:53;99552.41;;;16.82
81885;BMP280;71340;55.154;30.266;2023-08-12T05:11:18;99550.19;;;16.80
81885;BMP280;71340;55.154;30.266;2023-08-12T05:13:43;99552.78;;;17.01
81885;BMP280;71340;55.154;30.266;2023-08-12T05:16:09;99558.13;;;16.87
81885;BMP280;71340;55.154;30.266;2023-08-12T05:18:34;99554.38;;;16.64
81885;BMP280;71340;55.154;30.266;2023-08-12T05:20:59;99552.09;;;16.69
81885;BMP280;71340;55.154;30.266;2023-08-12T05:23:25;99546.78;;;16.62
81885;BMP280;71340;55.154;30.266;2023-08-12T05:25:50;99557.75;;;16.78
81885;BMP280;71340;55.154;30.266;2023-08-12T05:28:15;99555.47;;;16.77
81885;BMP280;71340;55.154;30.266;2023-08-12T05:30:41;99552.06;;;16.76
81885;BMP280;71340;55.154;30.266;2023-08-12T05:33:06;99555.09;;;16.89
81885;BMP280;71340;55.154;30.266;2023-08-12T05:35:35;99558.88;;;16.81
81885;BMP280;71340;55.154;30.266;2023-08-12T05:38:01;99562.22;;;17.02
81885;BMP280;71340;55.154;30.266;2023-08-12T05:40:26;99564.50;;;17.11
81885;BMP280;71340;55.154;30.266;2023-08-12T05:42:52;99556.56;;;17.11
81885;BMP280;71340;55.154;30.266;2023-08-12T05:45:17;99559.94;;;17.18
81885;BMP280;71340;55.154;30.266;2023-08-12T05:47:42;99552.00;;;17.18
81885;BMP280;71340;55.154;30.266;2023-08-12T05:50:08;99560.25;;;17.34
81885;BMP280;71340;55.154;30.266;2023-08-12T05:52:33;99557.31;;;17.08
81885;BMP280;71340;55.154;30.266;2023-08-12T05:54:59;99554.25;;;17.20
81885;BMP280;71340;55.154;30.266;2023-08-12T05:57:24;99549.66;;;17.34
81885;BMP280;71340;55.154;30.266;2023-08-12T05:59:49;99553.78;;;17.49
81885;BMP280;71340;55.154;30.266;2023-08-12T06:02:15;99550.81;;;17.33
81885;BMP280;71340;55.154;30.266;2023-08-12T06:04:40;99535.75;;;17.13
81885;BMP280;71340;55.154;30.266;2023-08-12T06:07:05;99545.91;;;17.28
81885;BMP280;71340;55.154;30.266;2023-08-12T06:09:31;99547.00;;;17.38
81885;BMP280;71340;55.154;30.266;2023-08-12T06:11:56;99542.41;;;17.52
81885;BMP280;71340;55.154;30.266;2023-08-12T06:14:21;99529.16;;;17.49
81885;BMP280;71340;55.154;30.266;2023-08-12T06:16:47;99532.53;;;17.60
81885;BMP280;71340;55.154;30.266;2023-08-12T06:19:12;99542.00;;;17.57
81885;BMP280;71340;55.154;30.266;2023-08-12T06:21:37;99529.06;;;17.67
81885;BMP280;71340;55.154;30.266;2023-08-12T06:24:03;99536.66;;;17.72
81885;BMP280;71340;55.154;30.266;2023-08-12T06:26:29;99532.84;;;17.73
81885;BMP280;71340;55.154;30.266;2023-08-12T06:28:54;99525.28;;;17.68
81885;BMP280;71340;55.154;30.266;2023-08-12T06:31:20;99526.47;;;17.63
81885;BMP280;71340;55.154;30.266;2023-08-12T06:33:45;99524.94;;;17.69
81885;BMP280;71340;55.154;30.266;2023-08-12T06:36:10;99537.00;;;17.70
81885;BMP280;71340;55.154;30.266;2023-08-12T06:38:36;99532.44;;;17.78
81885;BMP280;71340;55.154;30.266;2023-08-12T06:41:01;99537.91;;;17.42
81885;BMP280;71340;55.154;30.266;2023-08-12T06:43:26;99529.91;;;17.53
81885;BMP280;71340;55.154;30.266;2023-08-12T06:45:52;99535.84;;;17.75
81885;BMP280;71340;55.154;30.266;2023-08-12T06:48:17;99519.97;;;17.71
81885;BMP280;71340;55.154;30.266;2023-08-12T06:50:42;99528.69;;;17.65
81885;BMP280;71340;55.154;30.266;2023-08-12T06:53:08;99532.91;;;17.58
81885;BMP280;71340;55.154;30.266;2023-08-12T06:55:34;99522.72;;;17.46
81885;BMP280;71340;55.154;30.266;2023-08-12T06:58:00;99534.94;;;17.33
81885;BMP280;71340;55.154;30.266;2023-08-12T07:00:25;99537.16;;;17.38
81885;BMP280;71340;55.154;30.266;2023-08-12T07:02:51;99533.06;;;17.23
81885;BMP280;71340;55.154;30.266;2023-08-12T07:05:16;99521.72;;;17.16
81885;BMP280;71340;55.154;30.266;2023-08-12T07:07:41;99528.47;;;17.34
81885;BMP280;71340;55.154;30.266;2023-08-12T07:10:07;99526.91;;;17.40
81885;BMP280;71340;55.154;30.266;2023-08-12T07:12:32;99516.28;;;17.51
81885;BMP280;71340;55.154;30.266;2023-08-12T07:14:58;99526.56;;;17.31
81885;BMP280;71340;55.154;30.266;2023-08-12T07:17:23;99513.03;;;17.12
81885;BMP280;71340;55.154;30.266;2023-08-12T07:19:49;99518.59;;;17.45
81885;BMP280;71340;55.154;30.266;2023-08-12T07:22:14;99521.66;;;17.37
81885;BMP280;71340;55.154;30.266;2023-08-12T07:24:43;99513.31;;;17.31
81885;BMP280;71340;55.154;30.266;2023-08-12T07:27:08;99507.25;;;17.41
81885;BMP280;71340;55.154;30.266;2023-08-12T07:29:34;99513.22;;;17.63
81885;BMP280;71340;55.154;30.266;2023-08-12T07:31:59;99519.22;;;17.71
81885;BMP280;71340;55.154;30.266;2023-08-12T07:34:24;99516.53;;;17.78
81885;BMP280;71340;55.154;30.266;2023-08-12T07:36:50;99510.13;;;17.72
81885;BMP280;71340;55.154;30.266;2023-08-12T07:39:15;99516.28;;;17.54
81885;BMP280;71340;55.154;30.266;2023-08-12T07:41:40;99523.75;;;17.74
81885;BMP280;71340;55.154;30.266;2023-08-12T07:44:06;99513.84;;;17.81
81885;BMP280;71340;55.154;30.266;2023-08-12T07:46:31;99522.84;;;17.94
81885;BMP280;71340;55.154;30.266;2023-08-12T07:48:57;99521.69;;;18.02
81885;BMP280;71340;55.154;30.266;2023-08-12T07:51:22;99522.47;;;17.96
81885;BMP280;71340;55.154;30.266;2023-08-12T07:53:48;99523.75;;;17.74
81885;BMP280;71340;55.154;30.266;2023-08-12T07:56:13;99515.00;;;17.80
81885;BMP280;71340;55.154;30.266;2023-08-12T07:58:38;99507.94;;;17.56
81885;BMP280;71340;55.154;30.266;2023-08-12T08:01:04;99503.44;;;17.49
81885;BMP280;71340;55.154;30.266;2023-08-12T08:03:30;99506.13;;;17.35
81885;BMP280;71340;55.154;30.266;2023-08-12T08:05:55;99507.94;;;17.52
81885;BMP280;71340;55.154;30.266;2023-08-12T08:08:21;99508.25;;;17.72
81885;BMP280;71340;55.154;30.266;2023-08-12T08:10:46;99488.59;;;17.63
81885;BMP280;71340;55.154;30.266;2023-08-12T08:13:11;99494.22;;;17.72
81885;BMP280;71340;55.154;30.266;2023-08-12T08:15:37;99497.22;;;17.77
81885;BMP280;71340;55.154;30.266;2023-08-12T08:18:03;99498.22;;;17.94
81885;BMP280;71340;55.154;30.266;2023-08-12T08:20:29;99489.72;;;17.69
81885;BMP280;71340;55.154;30.266;2023-08-12T08:22:54;99485.84;;;17.77
81885;BMP280;71340;55.154;30.266;2023-08-12T08:25:20;99492.94;;;17.90
81885;BMP280;71340;55.154;30.266;2023-08-12T08:27:46;99495.59;;;17.90
81885;BMP280;71340;55.154;30.266;2023-08-12T08:30:12;99480.00;;;17.99
81885;BMP280;71340;55.154;30.266;2023-08-12T08:32:38;99493.09;;;18.24
81885;BMP280;71340;55.154;30.266;2023-08-12T08:35:03;99484.69;;;18.29
81885;BMP280;71340;55.154;30.266;2023-08-12T08:37:29;99479.69;;;18.38
81885;BMP280;71340;55.154;30.266;2023-08-12T08:39:55;99484.31;;;18.27
81885;BMP280;71340;55.154;30.266;2023-08-12T08:42:20;99478.56;;;18.39
81885;BMP280;71340;55.154;30.266;2023-08-12T08:44:48;99476.00;;;18.25
81885;BMP280;71340;55.154;30.266;2023-08-12T08:47:18;99475.16;;;18.35
81885;BMP280;71340;55.154;30.266;2023-08-12T08:49:44;99465.56;;;18.48
81885;BMP280;71340;55.154;30.266;2023-08-12T08:52:10;99467.06;;;18.49
81885;BMP280;71340;55.154;30.266;2023-08-12T08:54:36;99461.72;;;18.52
81885;BMP280;71340;55.154;30.266;2023-08-12T08:57:02;99457.03;;;18.63
81885;BMP280;71340;55.154;30.266;2023-08-12T08:59:28;99455.78;;;18.75
81885;BMP280;71340;55.154;30.266;2023-08-12T09:01:54;99458.63;;;18.57
81885;BMP280;71340;55.154;30.266;2023-08-12T09:04:21;99447.53;;;18.66
81885;BMP280;71340;55.154;30.266;2023-08-12T09:06:47;99458.44;;;18.75
81885;BMP280;71340;55.154;30.266;2023-08-12T09:09:16;99449.28;;;18.80
81885;BMP280;71340;55.154;30.266;2023-08-12T09:11:43;99449.91;;;18.57
81885;BMP280;71340;55.154;30.266;2023-08-12T09:14:10;99445.34;;;18.57
81885;BMP280;71340;55.154;30.266;2023-08-12T09:16:36;99442.72;;;18.54
81885;BMP280;71340;55.154;30.266;2023-08-12T09:19:01;99434.97;;;18.70
81885;BMP280;71340;55.154;30.266;2023-08-12T09:21:28;99436.13;;;18.69
81885;BMP280;71340;55.154;30.266;2023-08-12T09:23:54;99413.72;;;18.70
81885;BMP280;71340;55.154;30.266;2023-08-12T09:26:20;99424.31;;;18.74
81885;BMP280;71340;55.154;30.266;2023-08-12T09:28:46;99417.25;;;18.60
81885;BMP280;71340;55.154;30.266;2023-08-12T09:33:48;99424.53;;;18.56
81885;BMP280;71340;55.154;30.266;2023-08-12T09:36:15;99434.13;;;18.80
81885;BMP280;71340;55.154;30.266;2023-08-12T09:38:40;99440.84;;;18.88
81885;BMP280;71340;55.154;30.266;2023-08-12T09:41:06;99439.09;;;18.75
81885;BMP280;71340;55.154;30.266;2023-08-12T09:43:31;99426.38;;;18.59
81885;BMP280;71340;55.154;30.266;2023-08-12T09:45:57;99430.53;;;18.60
81885;BMP280;71340;55.154;30.266;2023-08-12T09:48:28;99420.34;;;18.55
81885;BMP280;71340;55.154;30.266;2023-08-12T09:50:53;99438.16;;;18.54
81885;BMP280;71340;55.154;30.266;2023-08-12T09:53:19;99437.97;;;18.72
81885;BMP280;71340;55.154;30.266;2023-08-12T09:55:47;99432.94;;;18.81
81885;BMP280;71340;55.154;30.266;2023-08-12T09:58:16;99421.13;;;18.86
81885;BMP280;71340;55.154;30.266;2023-08-12T10:00:42;99409.22;;;18.97
81885;BMP280;71340;55.154;30.266;2023-08-12T10:03:10;99410.72;;;18.98
81885;BMP280;71340;55.154;30.266;2023-08-12T10:05:36;99404.47;;;18.82
81885;BMP280;71340;55.154;30.266;2023-08-12T10:08:02;99399.34;;;18.67
81885;BMP280;71340;55.154;30.266;2023-08-12T10:10:30;99400.28;;;18.84
81885;BMP280;71340;55.154;30.266;2023-08-12T10:12:55;99398.34;;;18.88
81885;BMP280;71340;55.154;30.266;2023-08-12T10:15:21;99403.81;;;18.74
81885;BMP280;71340;55.154;30.266;2023-08-12T10:17:48;99377.69;;;18.69
81885;BMP280;71340;55.154;30.266;2023-08-12T10:20:22;99391.69;;;18.73
81885;BMP280;71340;55.154;30.266;2023-08-12T10:22:48;99387.25;;;18.93
81885;BMP280;71340;55.154;30.266;2023-08-12T10:25:14;99382.34;;;19.18
81885;BMP280;71340;55.154;30.266;2023-08-12T10:27:40;99383.91;;;19.16
81885;BMP280;71340;55.154;30.266;2023-08-12T10:30:06;99391.28;;;19.31
81885;BMP280;71340;55.154;30.266;2023-08-12T10:32:33;99392.28;;;19.14
81885;BMP280;71340;55.154;30.266;2023-08-12T10:34:58;99376.53;;;19.00
81885;BMP280;71340;55.154;30.266;2023-08-12T10:37:24;99375.72;;;19.03
81885;BMP280;71340;55.154;30.266;2023-08-12T10:39:52;99378.00;;;19.05
81885;BMP280;71340;55.154;30.266;2023-08-12T10:45:10;99355.28;;;19.27
81885;BMP280;71340;55.154;30.266;2023-08-12T10:47:42;99358.44;;;19.18
81885;BMP280;71340;55.154;30.266;2023-08-12T10:50:22;99352.25;;;19.48
81885;BMP280;71340;55.154;30.266;2023-08-12T10:52:53;99352.53;;;19.07
81885;BMP280;71340;55.154;30.266;2023-08-12T10:57:46;99370.31;;;18.84
81885;BMP280;71340;55.154;30.266;2023-08-12T11:00:19;99372.34;;;19.03
81885;BMP280;71340;55.154;30.266;2023-08-12T11:02:55;99369.00;;;18.95
81885;BMP280;71340;55.154;30.266;2023-08-12T11:05:21;99359.50;;;18.71
81885;BMP280;71340;55.154;30.266;2023-08-12T11:08:00;99359.25;;;18.58
81885;BMP280;71340;55.154;30.266;2023-08-12T11:10:30;99359.28;;;18.55
81885;BMP280;71340;55.154;30.266;2023-08-12T11:12:57;99372.06;;;18.67
81885;BMP280;71340;55.154;30.266;2023-08-12T11:15:43;99368.13;;;18.45
81885;BMP280;71340;55.154;30.266;2023-08-12T11:18:16;99367.25;;;18.55
81885;BMP280;71340;55.154;30.266;2023-08-12T11:20:42;99361.03;;;18.69
81885;BMP280;71340;55.154;30.266;2023-08-12T11:23:08;99361.34;;;18.74
81885;BMP280;71340;55.154;30.266;2023-08-12T11:25:35;99366.19;;;18.49
81885;BMP280;71340;55.154;30.266;2023-08-12T11:28:01;99365.56;;;18.38
81885;BMP280;71340;55.154;30.266;2023-08-12T11:30:27;99357.22;;;18.36
81885;BMP280;71340;55.154;30.266;2023-08-12T11:32:54;99357.22;;;18.36
81885;BMP280;71340;55.154;30.266;2023-08-12T11:35:20;99367.72;;;18.46
81885;BMP280;71340;55.154;30.266;2023-08-12T11:37:50;99361.50;;;18.30
81885;BMP280;71340;55.154;30.266;2023-08-12T11:40:18;99368.84;;;18.49
81885;BMP280;71340;55.154;30.266;2023-08-12T11:42:46;99368.53;;;18.43
81885;BMP280;71340;55.154;30.266;2023-08-12T11:45:12;99376.22;;;17.94
81885;BMP280;71340;55.154;30.266;2023-08-12T11:47:40;99377.34;;;17.96
81885;BMP280;71340;55.154;30.266;2023-08-12T11:50:06;99364.53;;;17.88
81885;BMP280;71340;55.154;30.266;2023-08-12T11:52:32;99372.94;;;17.79
81885;BMP280;71340;55.154;30.266;2023-08-12T11:54:58;99353.91;;;17.91
81885;BMP280;71340;55.154;30.266;2023-08-12T11:57:24;99358.41;;;17.94
81885;BMP280;71340;55.154;30.266;2023-08-12T11:59:51;99356.06;;;18.07
81885;BMP280;71340;55.154;30.266;2023-08-12T12:02:16;99348.72;;;18.18
81885;BMP280;71340;55.154;30.266;2023-08-12T12:04:42;99352.44;;;17.87
81885;BMP280;71340;55.154;30.266;2023-08-12T12:07:17;99347.97;;;17.77
81885;BMP280;71340;55.154;30.266;2023-08-12T12:09:43;99346.31;;;17.90
81885;BMP280;71340;55.154;30.266;2023-08-12T12:12:10;99357.66;;;17.94
81885;BMP280;71340;55.154;30.266;2023-08-12T12:14:36;99346.28;;;17.97
81885;BMP280;71340;55.154;30.266;2023-08-12T12:17:07;99324.78;;;17.88
81885;BMP280;71340;55.154;30.266;2023-08-12T12:19:33;99335.66;;;17.97
81885;BMP280;71340;55.154;30.266;2023-08-12T12:22:02;99337.22;;;17.91
81885;BMP280;71340;55.154;30.266;2023-08-12T12:24:29;99339.66;;;17.75
81885;BMP280;71340;55.154;30.266;2023-08-12T12:26:56;99338.91;;;17.78
81885;BMP280;71340;55.154;30.266;2023-08-12T12:29:22;99342.53;;;17.91
81885;BMP280;71340;55.154;30.266;2023-08-12T12:31:47;99347.16;;;17.87
81885;BMP280;71340;55.154;30.266;2023-08-12T12:34:12;99344.09;;;17.85
81885;BMP280;71340;55.154;30.266;2023-08-12T12:36:39;99346.41;;;17.83
81885;BMP280;71340;55.154;30.266;2023-08-12T12:39:06;99346.75;;;17.85
81885;BMP280;71340;55.154;30.266;2023-08-12T12:41:31;99351.81;;;17.72
81885;BMP280;71340;55.154;30.266;2023-08-12T12:43:59;99351.16;;;17.57
81885;BMP280;71340;55.154;30.266;2023-08-12T12:46:25;99346.56;;;17.62
81885;BMP280;71340;55.154;30.266;2023-08-12T12:48:50;99342.84;;;17.55
81885;BMP280;71340;55.154;30.266;2023-08-12T12:51:15;99344.78;;;17.51
81885;BMP280;71340;55.154;30.266;2023-08-12T12:53:41;99339.88;;;17.50
81885;BMP280;71340;55.154;30.266;2023-08-12T12:56:06;99347.47;;;17.44
81885;BMP280;71340;55.154;30.266;2023-08-12T12:58:36;99349.31;;;17.51
81885;BMP280;71340;55.154;30.266;2023-08-12T13:01:03;99353.41;;;17.63
81885;BMP280;71340;55.154;30.266;2023-08-12T13:03:32;99345.16;;;17.53
81885;BMP280;71340;55.154;30.266;2023-08-12T13:05:58;99352.03;;;17.44
81885;BMP280;71340;55.154;30.266;2023-08-12T13:08:24;99340.66;;;17.43
81885;BMP280;71340;55.154;30.266;2023-08-12T13:10:50;99342.25;;;17.30
81885;BMP280;71340;55.154;30.266;2023-08-12T13:13:16;99339.22;;;17.32
81885;BMP280;71340;55.154;30.266;2023-08-12T13:15:42;99354.41;;;17.28
81885;BMP280;71340;55.154;30.266;2023-08-12T13:18:08;99350.47;;;17.46
81885;BMP280;71340;55.154;30.266;2023-08-12T13:20:34;99345.16;;;17.46
81885;BMP280;71340;55.154;30.266;2023-08-12T13:23:00;99349.78;;;17.39
81885;BMP280;71340;55.154;30.266;2023-08-12T13:25:28;99356.34;;;17.20
81885;BMP280;71340;55.154;30.266;2023-08-12T13:27:53;99348.78;;;17.22
81885;BMP280;71340;55.154;30.266;2023-08-12T13:30:19;99343.06;;;17.27
81885;BMP280;71340;55.154;30.266;2023-08-12T13:32:44;99349.25;;;16.96
81885;BMP280;71340;55.154;30.266;2023-08-12T13:35:10;99350.09;;;16.90
81885;BMP280;71340;55.154;30.266;2023-08-12T13:37:36;99345.88;;;16.96
81885;BMP280;71340;55.154;30.266;2023-08-12T13:40:01;99342.38;;;17.13
81885;BMP280;71340;55.154;30.266;2023-08-12T13:42:26;99332.56;;;17.10
81885;BMP280;71340;55.154;30.266;2023-08-12T13:44:52;99340.88;;;17.12
81885;BMP280;71340;55.154;30.266;2023-08-12T13:47:18;99340.88;;;17.15
81885;BMP280;71340;55.154;30.266;2023-08-12T13:49:43;99337.44;;;17.18
81885;BMP280;71340;55.154;30.266;2023-08-12T13:52:08;99340.50;;;17.06
81885;BMP280;71340;55.154;30.266;2023-08-12T13:54:34;99337.44;;;17.11
81885;BMP280;71340;55.154;30.266;2023-08-12T13:56:59;99337.19;;;16.92
81885;BMP280;71340;55.154;30.266;2023-08-12T13:59:25;99335.00;;;16.76
81885;BMP280;71340;55.154;30.266;2023-08-12T14:01:50;99322.50;;;16.84
81885;BMP280;71340;55.154;30.266;2023-08-12T14:04:15;99334.91;;;16.94